createdAt,value
2018-10-21T00:00:58.707Z,12.20
2018-10-21T00:03:27.830Z,11.73
2018-10-21T00:05:56.819Z,12.63
2018-10-21T00:08:25.818Z,12.33
2018-10-21T00:10:57.855Z,12.20
2018-10-21T00:13:26.861Z,12.10
2018-10-21T00:15:55.849Z,13.13
2018-10-21T00:18:25.182Z,12.50
2018-10-21T00:20:54.213Z,12.97
2018-10-21T00:23:23.194Z,12.27
2018-10-21T00:25:52.202Z,12.43
2018-10-21T00:28:21.193Z,11.40
2018-10-21T00:30:50.198Z,11.63
2018-10-21T00:33:19.178Z,11.40
2018-10-21T00:35:48.168Z,11.17
2018-10-21T00:38:17.184Z,10.40
2018-10-21T00:40:46.185Z,10.30
2018-10-21T00:43:15.198Z,10.23
2018-10-21T00:45:44.190Z,9.87
2018-10-21T00:48:13.199Z,10.37
2018-10-21T00:50:42.202Z,9.60
2018-10-21T00:53:11.204Z,10.37
2018-10-21T00:55:40.250Z,11.00
2018-10-21T00:58:09.262Z,10.83
2018-10-21T01:00:38.250Z,11.20
2018-10-21T01:03:07.302Z,10.93
2018-10-21T01:05:36.290Z,10.67
2018-10-21T01:08:05.695Z,10.53
2018-10-21T01:10:34.699Z,10.03
2018-10-21T01:13:03.670Z,9.70
2018-10-21T01:15:32.685Z,10.10
2018-10-21T01:18:01.664Z,8.83
2018-10-21T01:20:30.663Z,8.07
2018-10-21T01:22:59.634Z,8.03
2018-10-21T01:25:28.610Z,8.80
2018-10-21T01:27:57.612Z,8.20
2018-10-21T01:30:26.598Z,8.10
2018-10-21T01:32:55.610Z,8.07
2018-10-21T01:35:24.890Z,8.50
2018-10-21T01:37:54.028Z,8.13
2018-10-21T01:40:31.543Z,8.33
2018-10-21T01:43:00.807Z,8.70
2018-10-21T01:45:29.783Z,7.57
2018-10-21T01:47:59.839Z,8.07
2018-10-21T01:50:28.851Z,7.77
2018-10-21T01:52:58.861Z,9.50
2018-10-21T01:55:27.958Z,9.27
2018-10-21T01:57:57.694Z,8.10
2018-10-21T02:00:27.387Z,10.10
2018-10-21T02:02:57.252Z,9.47
2018-10-21T02:05:26.369Z,10.47
2018-10-21T02:07:55.681Z,11.27
2018-10-21T02:10:24.666Z,11.73
2018-10-21T02:12:53.653Z,11.73
2018-10-21T02:15:22.671Z,12.10
2018-10-21T02:17:51.683Z,11.80
2018-10-21T02:20:21.367Z,11.90
2018-10-21T02:22:50.724Z,9.73
2018-10-21T02:25:19.762Z,8.07
2018-10-21T02:27:49.515Z,7.57
2018-10-21T02:30:19.695Z,7.80
2018-10-21T02:32:49.398Z,7.43
2018-10-21T02:35:18.854Z,7.33
2018-10-21T02:37:48.011Z,7.77
2018-10-21T02:41:33.249Z,7.63
2018-10-21T02:44:02.646Z,7.23
2018-10-21T02:46:31.873Z,7.60
2018-10-21T02:49:02.683Z,8.37
2018-10-21T02:51:31.672Z,7.80
2018-10-21T02:54:00.675Z,8.53
2018-10-21T02:56:29.696Z,7.93
2018-10-21T02:58:58.778Z,8.20
2018-10-21T03:01:27.786Z,8.50
2018-10-21T03:03:56.805Z,9.30
2018-10-21T03:06:25.779Z,10.10
2018-10-21T03:08:54.836Z,12.30
2018-10-21T03:11:23.815Z,12.67
2018-10-21T03:13:52.826Z,12.97
2018-10-21T03:16:21.812Z,13.70
2018-10-21T03:18:50.850Z,14.33
2018-10-21T03:21:19.973Z,13.80
2018-10-21T03:23:48.841Z,13.87
2018-10-21T03:26:17.854Z,13.90
2018-10-21T03:28:46.847Z,13.47
2018-10-21T03:31:15.839Z,13.53
2018-10-21T03:33:45.044Z,13.90
2018-10-21T03:36:13.847Z,13.57
2018-10-21T03:38:42.871Z,14.30
2018-10-21T03:41:11.866Z,14.10
2018-10-21T03:43:40.859Z,13.77
2018-10-21T03:46:11.444Z,13.00
2018-10-21T03:48:40.363Z,12.03
2018-10-21T03:51:09.372Z,11.70
2018-10-21T03:53:38.343Z,10.27
2018-10-21T03:56:07.370Z,10.40
2018-10-21T03:58:36.387Z,9.67
2018-10-21T04:01:05.787Z,8.97
2018-10-21T04:03:34.815Z,9.90
2018-10-21T04:06:03.799Z,10.90
2018-10-21T04:08:32.783Z,9.10
2018-10-21T04:11:02.030Z,9.30
2018-10-21T04:13:31.006Z,9.30
2018-10-21T04:16:00.021Z,10.77
2018-10-21T04:18:29.010Z,11.73
2018-10-21T04:20:57.994Z,10.90
2018-10-21T04:23:27.007Z,11.87
2018-10-21T04:25:56.007Z,10.80
2018-10-21T04:28:25.006Z,10.43
2018-10-21T04:30:54.010Z,9.00
2018-10-21T04:33:53.138Z,10.10
2018-10-21T04:36:24.763Z,8.67
2018-10-21T04:40:08.071Z,9.03
2018-10-21T04:42:37.006Z,7.93
2018-10-21T04:45:06.674Z,7.37
2018-10-21T04:47:35.674Z,7.27
2018-10-21T04:50:04.993Z,7.33
2018-10-21T04:52:34.187Z,7.53
2018-10-21T04:55:13.050Z,6.87
2018-10-21T04:57:43.214Z,7.00
2018-10-21T05:00:16.946Z,7.20
2018-10-21T05:02:45.951Z,6.63
2018-10-21T05:05:15.470Z,7.30
2018-10-21T05:07:44.491Z,7.17
2018-10-21T05:10:21.831Z,7.47
2018-10-21T05:12:50.839Z,7.60
2018-10-21T05:15:20.135Z,8.70
2018-10-21T05:17:49.124Z,8.57
2018-10-21T05:20:18.935Z,9.80
2018-10-21T05:22:48.298Z,8.87
2018-10-21T05:25:17.309Z,9.50
2018-10-21T05:27:46.327Z,8.97
2018-10-21T05:30:15.379Z,9.33
2018-10-21T05:32:44.463Z,8.87
2018-10-21T05:35:14.482Z,8.27
2018-10-21T05:37:43.590Z,8.43
2018-10-21T05:40:13.885Z,9.10
2018-10-21T05:42:43.322Z,9.23
2018-10-21T05:45:12.344Z,8.87
2018-10-21T05:47:41.867Z,9.20
2018-10-21T05:50:11.968Z,8.97
2018-10-21T05:52:41.164Z,9.60
2018-10-21T05:55:10.722Z,9.70
2018-10-21T05:57:39.742Z,8.93
2018-10-21T06:00:11.879Z,9.57
2018-10-21T06:02:41.048Z,9.80
2018-10-21T06:05:21.334Z,10.10
2018-10-21T06:07:50.439Z,9.87
2018-10-21T06:10:19.421Z,9.47
2018-10-21T06:12:48.434Z,9.83
2018-10-21T06:15:17.438Z,9.80
2018-10-21T06:17:46.421Z,9.70
2018-10-21T06:20:18.920Z,9.13
2018-10-21T06:22:48.078Z,9.33
2018-10-21T06:25:17.084Z,8.93
2018-10-21T06:27:46.136Z,9.63
2018-10-21T06:30:15.099Z,9.03
2018-10-21T06:32:44.078Z,8.50
2018-10-21T06:35:13.059Z,8.23
2018-10-21T06:37:42.083Z,8.60
2018-10-21T06:40:12.118Z,8.27
2018-10-21T06:42:41.277Z,7.53
2018-10-21T06:45:11.418Z,8.10
2018-10-21T06:47:40.463Z,7.27
2018-10-21T06:50:16.219Z,7.40
2018-10-21T06:52:45.202Z,7.43
2018-10-21T06:55:14.292Z,8.03
2018-10-21T06:57:43.990Z,8.13
2018-10-21T07:00:12.996Z,8.93
2018-10-21T07:02:42.011Z,9.30
2018-10-21T07:05:22.890Z,8.73
2018-10-21T07:07:52.347Z,9.30
2018-10-21T07:10:21.552Z,8.47
2018-10-21T07:12:50.783Z,8.40
2018-10-21T07:15:20.341Z,8.37
2018-10-21T07:17:49.242Z,7.47
2018-10-21T07:20:18.258Z,8.00
2018-10-21T07:22:47.236Z,7.20
2018-10-21T07:25:16.246Z,7.13
2018-10-21T07:27:45.263Z,7.40
2018-10-21T07:30:14.379Z,7.07
2018-10-21T07:32:43.672Z,7.17
2018-10-21T07:35:13.710Z,7.37
2018-10-21T07:37:43.535Z,7.30
2018-10-21T07:40:13.303Z,7.37
2018-10-21T07:42:42.403Z,7.33
2018-10-21T07:45:11.545Z,6.87
2018-10-21T07:47:40.622Z,6.87
2018-10-21T07:50:09.618Z,6.40
2018-10-21T07:52:38.642Z,6.07
2018-10-21T07:55:07.687Z,6.77
2018-10-21T07:57:36.658Z,6.73
2018-10-21T08:00:05.723Z,6.40
2018-10-21T08:02:34.719Z,6.87
2018-10-21T08:05:03.809Z,6.73
2018-10-21T08:07:43.959Z,6.40
2018-10-21T08:10:13.049Z,6.43
2018-10-21T08:12:41.954Z,6.00
2018-10-21T08:15:11.064Z,6.43
2018-10-21T08:17:39.967Z,6.10
2018-10-21T08:20:08.970Z,6.10
2018-10-21T08:22:38.004Z,6.60
2018-10-21T08:25:07.175Z,6.30
2018-10-21T08:27:36.182Z,6.27
2018-10-21T08:30:05.643Z,6.40
2018-10-21T08:32:34.647Z,6.07
2018-10-21T08:35:03.683Z,6.23
2018-10-21T08:37:32.686Z,5.83
2018-10-21T08:40:01.779Z,5.50
2018-10-21T08:42:30.746Z,5.80
2018-10-21T08:44:59.780Z,5.80
2018-10-21T08:47:28.790Z,6.03
2018-10-21T08:49:57.914Z,5.63
2018-10-21T08:52:26.838Z,5.47
2018-10-21T08:54:55.902Z,5.20
2018-10-21T08:57:24.853Z,5.40
2018-10-21T08:59:53.868Z,5.03
2018-10-21T09:02:22.855Z,4.33
2018-10-21T09:04:51.855Z,5.00
2018-10-21T09:07:21.203Z,5.00
2018-10-21T09:09:50.273Z,4.93
2018-10-21T09:12:19.267Z,5.27
2018-10-21T09:14:48.724Z,5.17
2018-10-21T09:17:17.730Z,4.50
2018-10-21T09:19:46.920Z,4.17
2018-10-21T09:22:15.816Z,4.60
2018-10-21T09:24:44.791Z,4.87
2018-10-21T09:27:13.786Z,4.37
2018-10-21T09:29:42.815Z,4.40
2018-10-21T09:32:11.846Z,4.87
2018-10-21T09:34:40.851Z,4.27
2018-10-21T09:37:09.998Z,4.33
2018-10-21T09:39:38.969Z,4.50
2018-10-21T09:42:07.985Z,4.30
2018-10-21T09:44:37.143Z,4.00
2018-10-21T09:47:06.257Z,4.03
2018-10-21T09:49:35.301Z,3.77
2018-10-21T09:52:04.352Z,3.53
2018-10-21T09:54:33.303Z,3.23
2018-10-21T09:57:02.415Z,3.70
2018-10-21T09:59:31.415Z,3.77
2018-10-21T10:02:05.683Z,3.10
2018-10-21T10:04:34.679Z,3.23
2018-10-21T10:07:03.728Z,2.80
2018-10-21T10:09:32.871Z,3.30
2018-10-21T10:12:01.947Z,3.40
2018-10-21T10:14:30.971Z,2.90
2018-10-21T10:16:59.970Z,3.10
2018-10-21T10:19:29.002Z,2.83
2018-10-21T10:21:58.004Z,2.90
2018-10-21T10:24:26.984Z,3.00
2018-10-21T10:26:55.998Z,2.63
2018-10-21T10:29:25.014Z,2.20
2018-10-21T10:31:54.034Z,2.30
2018-10-21T10:34:23.065Z,2.07
2018-10-21T10:36:52.067Z,2.50
2018-10-21T10:39:21.094Z,2.40
2018-10-21T10:41:50.169Z,2.60
2018-10-21T10:44:19.110Z,2.10
2018-10-21T10:46:48.102Z,2.10
2018-10-21T10:49:17.166Z,2.00
2018-10-21T10:51:46.104Z,2.10
2018-10-21T10:54:15.199Z,2.00
2018-10-21T10:56:44.222Z,2.10
2018-10-21T10:59:13.218Z,2.20
2018-10-21T11:01:42.219Z,2.30
2018-10-21T11:04:11.339Z,2.40
2018-10-21T11:06:40.255Z,2.00
2018-10-21T11:09:10.672Z,2.33
2018-10-21T11:11:39.668Z,2.10
2018-10-21T11:14:08.714Z,2.30
2018-10-21T11:16:37.738Z,2.20
2018-10-21T11:19:06.783Z,2.23
2018-10-21T11:21:35.795Z,2.20
2018-10-21T11:24:04.858Z,1.80
2018-10-21T11:26:33.867Z,2.23
2018-10-21T11:29:02.901Z,2.03
2018-10-21T11:31:31.965Z,2.30
2018-10-21T11:34:01.022Z,2.43
2018-10-21T11:36:30.050Z,2.67
2018-10-21T11:38:59.022Z,2.30
2018-10-21T11:41:28.050Z,2.13
2018-10-21T11:43:57.053Z,2.00
2018-10-21T11:46:26.112Z,2.33
2018-10-21T11:48:55.105Z,2.40
2018-10-21T11:51:24.079Z,2.33
2018-10-21T11:53:56.270Z,2.37
2018-10-21T11:56:25.286Z,2.40
2018-10-21T11:58:54.341Z,2.20
2018-10-21T12:01:23.335Z,2.40
2018-10-21T12:03:52.377Z,2.30
2018-10-21T12:06:21.390Z,2.30
2018-10-21T12:08:50.414Z,2.40
2018-10-21T12:11:19.434Z,2.23
2018-10-21T12:13:48.450Z,1.90
2018-10-21T12:16:17.556Z,2.20
2018-10-21T12:18:46.470Z,2.37
2018-10-21T12:21:15.459Z,2.20
2018-10-21T12:23:44.491Z,2.60
2018-10-21T12:26:13.598Z,2.30
2018-10-21T12:28:42.599Z,2.27
2018-10-21T12:31:11.831Z,2.37
2018-10-21T12:33:43.081Z,2.33
2018-10-21T12:36:12.952Z,2.20
2018-10-21T12:38:42.086Z,2.60
2018-10-21T12:41:11.851Z,2.30
2018-10-21T12:43:41.493Z,2.30
2018-10-21T12:46:10.739Z,2.23
2018-10-21T12:48:39.778Z,2.33
2018-10-21T12:51:08.831Z,2.00
2018-10-21T12:53:37.811Z,2.20
2018-10-21T12:56:08.361Z,2.10
2018-10-21T12:58:37.686Z,2.30
2018-10-21T13:01:07.172Z,2.03
2018-10-21T13:03:36.100Z,2.20
2018-10-21T13:06:05.203Z,2.00
2018-10-21T13:08:34.292Z,2.00
2018-10-21T13:11:03.357Z,2.20
2018-10-21T13:13:32.348Z,2.37
2018-10-21T13:16:02.024Z,2.30
2018-10-21T13:18:30.967Z,2.37
2018-10-21T13:21:01.434Z,2.40
2018-10-21T13:23:30.422Z,2.30
2018-10-21T13:25:59.417Z,2.50
2018-10-21T13:28:28.522Z,2.27
2018-10-21T13:30:57.550Z,2.00
2018-10-21T13:33:26.539Z,2.30
2018-10-21T13:35:55.555Z,2.57
2018-10-21T13:38:24.551Z,2.30
2018-10-21T13:40:53.579Z,2.13
2018-10-21T13:43:22.606Z,2.40
2018-10-21T13:45:51.629Z,2.40
2018-10-21T13:48:20.607Z,2.03
2018-10-21T13:50:49.594Z,2.60
2018-10-21T13:53:18.628Z,3.07
2018-10-21T13:55:47.634Z,3.53
2018-10-21T13:58:16.669Z,2.90
2018-10-21T14:00:45.774Z,2.37
2018-10-21T14:03:14.682Z,2.60
2018-10-21T14:05:43.670Z,2.20
2018-10-21T14:08:12.702Z,2.50
2018-10-21T14:10:41.825Z,2.57
2018-10-21T14:13:10.941Z,2.70
2018-10-21T14:15:39.992Z,2.30
2018-10-21T14:18:09.038Z,2.40
2018-10-21T14:20:38.075Z,2.80
2018-10-21T14:23:07.102Z,2.73
2018-10-21T14:25:36.223Z,2.43
2018-10-21T14:28:05.387Z,2.50
2018-10-21T14:30:34.524Z,2.90
2018-10-21T14:33:03.554Z,2.80
2018-10-21T14:35:32.566Z,2.70
2018-10-21T14:38:01.655Z,2.27
2018-10-21T14:40:30.688Z,2.60
2018-10-21T14:42:59.681Z,2.53
2018-10-21T14:45:28.768Z,2.73
2018-10-21T14:47:57.772Z,2.97
2018-10-21T14:50:27.059Z,2.50
2018-10-21T14:52:56.082Z,2.57
2018-10-21T14:55:25.134Z,2.90
2018-10-21T14:57:54.293Z,2.80
2018-10-21T15:00:23.506Z,2.63
2018-10-21T15:02:52.453Z,2.73
2018-10-21T15:05:21.821Z,2.50
2018-10-21T15:07:50.802Z,2.67
2018-10-21T15:10:19.926Z,2.83
2018-10-21T15:12:48.846Z,2.90
2018-10-21T15:15:17.871Z,2.77
2018-10-21T15:17:46.872Z,3.20
2018-10-21T15:20:15.927Z,3.40
2018-10-21T15:22:44.949Z,3.20
2018-10-21T15:25:14.144Z,2.83
2018-10-21T15:27:43.126Z,3.30
2018-10-21T15:30:12.572Z,3.07
2018-10-21T15:32:41.775Z,3.00
2018-10-21T15:35:10.872Z,3.37
2018-10-21T15:37:39.898Z,2.93
2018-10-21T15:40:09.991Z,3.53
2018-10-21T15:42:39.042Z,3.30
2018-10-21T15:45:09.988Z,2.97
2018-10-21T15:47:39.019Z,3.10
2018-10-21T15:50:08.550Z,2.97
2018-10-21T15:52:37.565Z,3.47
2018-10-21T15:55:07.275Z,3.10
2018-10-21T15:57:36.286Z,3.13
2018-10-21T16:00:07.415Z,3.20
2018-10-21T16:02:36.703Z,3.40
2018-10-21T16:05:06.448Z,3.80
2018-10-21T16:07:35.487Z,3.67
2018-10-21T16:10:04.538Z,3.83
2018-10-21T16:12:33.505Z,3.67
2018-10-21T16:15:02.518Z,3.40
2018-10-21T16:17:31.531Z,3.20
2018-10-21T16:20:00.567Z,3.27
2018-10-21T16:22:29.559Z,3.77
2018-10-21T16:24:58.677Z,3.90
2018-10-21T16:27:27.666Z,3.67
2018-10-21T16:29:56.715Z,3.73
2018-10-21T16:32:25.821Z,11.90
2018-10-21T16:34:54.768Z,9.93
2018-10-21T16:37:23.825Z,4.67
2018-10-21T16:39:52.786Z,3.80
2018-10-21T16:42:21.831Z,4.07
2018-10-21T16:44:50.974Z,3.93
2018-10-21T16:47:20.050Z,3.50
2018-10-21T16:49:49.058Z,3.90
2018-10-21T16:52:18.068Z,3.67
2018-10-21T16:54:47.486Z,3.50
2018-10-21T16:57:16.639Z,4.23
2018-10-21T16:59:45.667Z,3.90
2018-10-21T17:02:14.621Z,3.93
2018-10-21T17:04:43.634Z,5.13
2018-10-21T17:07:12.796Z,5.73
2018-10-21T17:09:41.893Z,5.00
2018-10-21T17:12:11.571Z,4.30
2018-10-21T17:14:41.794Z,3.97
2018-10-21T17:17:10.885Z,3.77
2018-10-21T17:19:39.842Z,4.13
2018-10-21T17:22:08.866Z,3.73
2018-10-21T17:24:37.993Z,3.60
2018-10-21T17:27:06.974Z,3.70
2018-10-21T17:29:36.026Z,3.67
2018-10-21T17:32:05.047Z,3.83
2018-10-21T17:34:34.054Z,3.80
2018-10-21T17:37:03.188Z,3.90
2018-10-21T17:39:32.152Z,3.90
2018-10-21T17:42:01.972Z,4.00
2018-10-21T17:44:31.080Z,3.77
2018-10-21T17:47:04.519Z,3.80
2018-10-21T17:49:34.401Z,3.87
2018-10-21T17:52:03.547Z,3.73
2018-10-21T17:54:32.530Z,4.10
2018-10-21T17:57:02.046Z,4.13
2018-10-21T17:59:31.076Z,4.67
2018-10-21T18:02:00.074Z,4.37
2018-10-21T18:04:29.103Z,4.50
2018-10-21T18:06:58.159Z,4.10
2018-10-21T18:09:27.151Z,4.40
2018-10-21T18:11:56.200Z,4.67
2018-10-21T18:14:25.267Z,4.70
2018-10-21T18:16:54.261Z,4.60
2018-10-21T18:19:23.247Z,4.47
2018-10-21T18:21:52.250Z,4.60
2018-10-21T18:24:21.255Z,4.43
2018-10-21T18:26:50.370Z,5.10
2018-10-21T18:29:19.390Z,4.70
2018-10-21T18:31:48.390Z,4.57
2018-10-21T18:34:17.515Z,4.97
2018-10-21T18:36:46.410Z,4.67
2018-10-21T18:39:15.402Z,4.70
2018-10-21T18:41:44.438Z,5.10
2018-10-21T18:44:13.424Z,5.20
2018-10-21T18:46:42.447Z,4.97
2018-10-21T18:49:11.495Z,5.23
2018-10-21T18:51:40.575Z,4.63
2018-10-21T18:54:09.591Z,4.80
2018-10-21T18:56:38.600Z,4.77
2018-10-21T18:59:07.711Z,4.73
2018-10-21T19:01:36.759Z,4.60
2018-10-21T19:04:05.889Z,4.63
2018-10-21T19:06:34.927Z,4.60
2018-10-21T19:09:05.239Z,4.40
2018-10-21T19:11:34.272Z,4.50
2018-10-21T19:14:03.280Z,4.57
2018-10-21T19:16:32.383Z,4.50
2018-10-21T19:19:02.289Z,4.40
2018-10-21T19:21:31.275Z,4.83
2018-10-21T19:24:00.256Z,4.63
2018-10-21T19:26:29.268Z,4.47
2018-10-21T19:28:58.270Z,5.00
2018-10-21T19:31:27.259Z,5.10
2018-10-21T19:33:56.411Z,4.70
2018-10-21T19:36:25.366Z,4.70
2018-10-21T19:38:54.390Z,4.60
2018-10-21T19:41:23.547Z,4.20
2018-10-21T19:43:53.522Z,4.57
2018-10-21T19:46:22.544Z,4.77
2018-10-21T19:48:51.542Z,5.03
2018-10-21T19:51:20.720Z,4.87
2018-10-21T19:53:49.726Z,5.27
2018-10-21T19:56:18.739Z,4.53
2018-10-21T19:58:47.746Z,4.97
2018-10-21T20:01:17.065Z,4.90
2018-10-21T20:03:46.185Z,5.27
2018-10-21T20:06:15.200Z,5.67
2018-10-21T20:08:44.190Z,4.83
2018-10-21T20:11:13.190Z,5.30
2018-10-21T20:13:42.194Z,4.63
2018-10-21T20:16:11.225Z,4.87
2018-10-21T20:18:40.218Z,5.00
2018-10-21T20:21:09.249Z,4.73
2018-10-21T20:23:38.259Z,4.80
2018-10-21T20:26:07.357Z,4.63
2018-10-21T20:28:36.520Z,4.80
2018-10-21T20:31:05.793Z,4.60
2018-10-21T20:33:34.883Z,5.07
2018-10-21T20:36:03.818Z,4.90
2018-10-21T20:38:32.842Z,5.17
2018-10-21T20:41:01.871Z,4.73
2018-10-21T20:43:30.878Z,5.10
2018-10-21T20:45:59.938Z,5.17
2018-10-21T20:48:28.890Z,4.97
2018-10-21T20:50:58.084Z,5.20
2018-10-21T20:53:27.046Z,5.73
2018-10-21T20:55:56.050Z,5.27
2018-10-21T20:58:25.081Z,5.13
2018-10-21T21:00:54.026Z,5.47
2018-10-21T21:03:23.035Z,5.00
2018-10-21T21:05:52.058Z,5.57
2018-10-21T21:08:21.103Z,5.90
2018-10-21T21:10:50.058Z,5.77
2018-10-21T21:13:19.162Z,5.80
2018-10-21T21:15:48.163Z,5.83
2018-10-21T21:18:17.246Z,5.47
2018-10-21T21:20:46.256Z,5.97
2018-10-21T21:23:15.175Z,5.60
2018-10-21T21:25:44.190Z,6.20
2018-10-21T21:28:13.243Z,6.27
2018-10-21T21:30:42.222Z,6.50
2018-10-21T21:33:11.203Z,6.50
2018-10-21T21:35:40.193Z,6.00
2018-10-21T21:38:09.245Z,5.67
2018-10-21T21:40:38.250Z,6.30
2018-10-21T21:43:07.301Z,6.30
2018-10-21T21:45:36.265Z,5.93
2018-10-21T21:48:05.344Z,6.07
2018-10-21T21:50:34.262Z,5.90
2018-10-21T21:53:03.287Z,6.00
2018-10-21T21:55:32.267Z,6.07
2018-10-21T21:58:01.301Z,6.43
2018-10-21T22:00:30.274Z,6.07
2018-10-21T22:02:59.274Z,5.50
2018-10-21T22:05:28.327Z,6.20
2018-10-21T22:07:57.322Z,6.40
2018-10-21T22:10:26.331Z,6.23
2018-10-21T22:12:55.350Z,6.50
2018-10-21T22:15:24.350Z,5.83
2018-10-21T22:17:53.358Z,5.70
2018-10-21T22:20:22.382Z,6.13
2018-10-21T22:22:51.415Z,6.17
2018-10-21T22:25:20.407Z,6.00
2018-10-21T22:27:49.393Z,5.60
2018-10-21T22:30:18.432Z,5.73
2018-10-21T22:32:47.493Z,5.93
2018-10-21T22:35:16.502Z,5.67
2018-10-21T22:37:45.518Z,5.40
2018-10-21T22:40:14.699Z,5.40
2018-10-21T22:42:43.727Z,5.57
2018-10-21T22:45:12.731Z,5.40
2018-10-21T22:47:41.756Z,5.50
2018-10-21T22:50:11.808Z,4.90
2018-10-21T22:52:41.335Z,6.00
2018-10-21T22:55:10.350Z,5.27
2018-10-21T22:57:39.603Z,4.80
2018-10-21T23:00:09.429Z,4.87
2018-10-21T23:02:38.402Z,4.60
2018-10-21T23:05:08.024Z,4.53
2018-10-21T23:07:37.510Z,4.60
2018-10-21T23:10:06.579Z,4.53
2018-10-21T23:12:35.518Z,4.77
2018-10-21T23:15:04.634Z,4.60
2018-10-21T23:17:33.863Z,4.70
2018-10-21T23:20:02.891Z,4.70
2018-10-21T23:22:31.895Z,4.27
2018-10-21T23:25:01.042Z,4.00
2018-10-21T23:27:30.029Z,4.13
2018-10-21T23:29:59.048Z,4.10
2018-10-21T23:32:28.024Z,4.23
2018-10-21T23:34:57.008Z,4.27
2018-10-21T23:37:26.023Z,4.00
2018-10-21T23:39:55.006Z,4.17
2018-10-21T23:42:24.006Z,4.27
2018-10-21T23:44:53.018Z,3.90
2018-10-21T23:47:22.022Z,4.10
2018-10-21T23:49:51.045Z,4.17
2018-10-21T23:52:20.317Z,3.80
2018-10-21T23:54:49.334Z,3.70
2018-10-21T23:57:18.334Z,3.77
2018-10-21T23:59:47.346Z,3.83
